Terminal Aerodrome Forecast
Issued by NWS Boston, MA

Home | Current Version | Previous Version | Text Only | Print | Product List | Glossary On
Versions: 1 2 3 4 5 6 7 8 9 10 11 12 13 14 15 16 17 18 19 20 21 22 23 24 25 26 27
000
FTUS41 KBOX 222334
TAFORH
TAF
KORH 222334Z 2300/2324 23014KT P6SM BKN050 WS020/25040KT
     FM231100 25010KT P6SM BKN050
     FM231600 24009KT P6SM SCT060
     FM232300 21006KT P6SM BKN080=

USA.gov is the U.S. government's official web portal to all federal, state and local government web resources and services.